sensor_id;sensor_type;location;lat;lon;timestamp;P1;durP1;ratioP1;P2;durP2;ratioP2
45338;SDS011;31071;51.478;5.710;2023-07-28T00:00:29;10.10;;;5.80;;
45338;SDS011;31071;51.478;5.710;2023-07-28T00:02:54;10.38;;;6.90;;
45338;SDS011;31071;51.478;5.710;2023-07-28T00:05:20;11.05;;;6.35;;
45338;SDS011;31071;51.478;5.710;2023-07-28T00:07:45;11.45;;;7.15;;
45338;SDS011;31071;51.478;5.710;2023-07-28T00:10:11;10.57;;;6.65;;
45338;SDS011;31071;51.478;5.710;2023-07-28T00:12:36;10.23;;;7.00;;
45338;SDS011;31071;51.478;5.710;2023-07-28T00:15:02;9.40;;;6.15;;
45338;SDS011;31071;51.478;5.710;2023-07-28T00:17:28;10.63;;;6.72;;
45338;SDS011;31071;51.478;5.710;2023-07-28T00:19:53;13.93;;;6.45;;
45338;SDS011;31071;51.478;5.710;2023-07-28T00:22:19;9.65;;;7.05;;
45338;SDS011;31071;51.478;5.710;2023-07-28T00:24:44;12.35;;;7.53;;
45338;SDS011;31071;51.478;5.710;2023-07-28T00:27:10;9.73;;;6.47;;
45338;SDS011;31071;51.478;5.710;2023-07-28T00:29:38;10.20;;;7.03;;
45338;SDS011;31071;51.478;5.710;2023-07-28T00:32:03;10.15;;;7.00;;
45338;SDS011;31071;51.478;5.710;2023-07-28T00:34:29;9.88;;;6.78;;
45338;SDS011;31071;51.478;5.710;2023-07-28T00:36:54;10.48;;;6.80;;
45338;SDS011;31071;51.478;5.710;2023-07-28T00:39:20;14.20;;;7.25;;
45338;SDS011;31071;51.478;5.710;2023-07-28T00:41:46;13.77;;;7.30;;
45338;SDS011;31071;51.478;5.710;2023-07-28T00:44:11;13.00;;;7.57;;
45338;SDS011;31071;51.478;5.710;2023-07-28T00:46:37;12.32;;;7.75;;
45338;SDS011;31071;51.478;5.710;2023-07-28T00:49:02;13.48;;;7.90;;
45338;SDS011;31071;51.478;5.710;2023-07-28T00:51:29;12.55;;;7.40;;
45338;SDS011;31071;51.478;5.710;2023-07-28T00:53:56;11.48;;;7.75;;
45338;SDS011;31071;51.478;5.710;2023-07-28T00:56:24;10.23;;;7.18;;
45338;SDS011;31071;51.478;5.710;2023-07-28T00:58:50;11.32;;;7.57;;
45338;SDS011;31071;51.478;5.710;2023-07-28T01:01:16;14.20;;;7.78;;
45338;SDS011;31071;51.478;5.710;2023-07-28T01:03:42;10.27;;;7.53;;
45338;SDS011;31071;51.478;5.710;2023-07-28T01:08:57;11.55;;;7.35;;
45338;SDS011;31071;51.478;5.710;2023-07-28T01:11:28;11.43;;;7.15;;
45338;SDS011;31071;51.478;5.710;2023-07-28T01:13:54;12.75;;;6.97;;
45338;SDS011;31071;51.478;5.710;2023-07-28T01:16:20;11.77;;;6.95;;
45338;SDS011;31071;51.478;5.710;2023-07-28T01:18:46;13.50;;;7.72;;
45338;SDS011;31071;51.478;5.710;2023-07-28T01:21:14;13.40;;;7.50;;
45338;SDS011;31071;51.478;5.710;2023-07-28T01:24:05;11.38;;;7.78;;
45338;SDS011;31071;51.478;5.710;2023-07-28T01:26:36;12.00;;;7.85;;
45338;SDS011;31071;51.478;5.710;2023-07-28T01:29:03;13.07;;;7.22;;
45338;SDS011;31071;51.478;5.710;2023-07-28T01:31:29;10.38;;;7.15;;
45338;SDS011;31071;51.478;5.710;2023-07-28T01:33:55;10.18;;;7.53;;
45338;SDS011;31071;51.478;5.710;2023-07-28T01:36:20;11.43;;;7.30;;
45338;SDS011;31071;51.478;5.710;2023-07-28T01:38:46;10.43;;;6.90;;
45338;SDS011;31071;51.478;5.710;2023-07-28T01:41:12;11.63;;;7.65;;
45338;SDS011;31071;51.478;5.710;2023-07-28T01:43:37;11.23;;;7.57;;
45338;SDS011;31071;51.478;5.710;2023-07-28T01:46:03;12.15;;;7.70;;
45338;SDS011;31071;51.478;5.710;2023-07-28T01:48:28;10.95;;;7.35;;
45338;SDS011;31071;51.478;5.710;2023-07-28T01:50:54;11.65;;;6.82;;
45338;SDS011;31071;51.478;5.710;2023-07-28T01:53:20;14.00;;;7.80;;
45338;SDS011;31071;51.478;5.710;2023-07-28T01:55:46;13.07;;;7.72;;
45338;SDS011;31071;51.478;5.710;2023-07-28T01:58:11;13.50;;;7.50;;
45338;SDS011;31071;51.478;5.710;2023-07-28T02:00:37;12.38;;;7.65;;
45338;SDS011;31071;51.478;5.710;2023-07-28T02:03:02;14.38;;;7.72;;
45338;SDS011;31071;51.478;5.710;2023-07-28T02:05:28;13.82;;;6.95;;
45338;SDS011;31071;51.478;5.710;2023-07-28T02:07:55;16.38;;;7.38;;
45338;SDS011;31071;51.478;5.710;2023-07-28T02:10:22;10.57;;;7.28;;
45338;SDS011;31071;51.478;5.710;2023-07-28T02:12:48;12.18;;;7.80;;
45338;SDS011;31071;51.478;5.710;2023-07-28T02:15:15;12.90;;;7.63;;
45338;SDS011;31071;51.478;5.710;2023-07-28T02:17:41;10.30;;;7.43;;
45338;SDS011;31071;51.478;5.710;2023-07-28T02:20:06;16.00;;;7.55;;
45338;SDS011;31071;51.478;5.710;2023-07-28T02:22:35;13.60;;;7.82;;
45338;SDS011;31071;51.478;5.710;2023-07-28T02:25:01;14.70;;;7.72;;
45338;SDS011;31071;51.478;5.710;2023-07-28T02:27:27;15.20;;;7.53;;
45338;SDS011;31071;51.478;5.710;2023-07-28T02:29:53;12.90;;;7.78;;
45338;SDS011;31071;51.478;5.710;2023-07-28T02:32:19;12.80;;;8.00;;
45338;SDS011;31071;51.478;5.710;2023-07-28T02:34:45;15.15;;;8.27;;
45338;SDS011;31071;51.478;5.710;2023-07-28T02:37:10;15.05;;;8.40;;
45338;SDS011;31071;51.478;5.710;2023-07-28T02:39:36;20.50;;;8.77;;
45338;SDS011;31071;51.478;5.710;2023-07-28T02:42:01;21.25;;;9.52;;
45338;SDS011;31071;51.478;5.710;2023-07-28T02:44:27;20.05;;;9.57;;
45338;SDS011;31071;51.478;5.710;2023-07-28T02:46:52;16.88;;;9.20;;
45338;SDS011;31071;51.478;5.710;2023-07-28T02:49:18;16.58;;;9.00;;
45338;SDS011;31071;51.478;5.710;2023-07-28T02:51:43;19.17;;;8.45;;
45338;SDS011;31071;51.478;5.710;2023-07-28T02:54:09;18.90;;;9.15;;
45338;SDS011;31071;51.478;5.710;2023-07-28T02:56:34;18.88;;;10.55;;
45338;SDS011;31071;51.478;5.710;2023-07-28T02:59:02;23.02;;;10.07;;
45338;SDS011;31071;51.478;5.710;2023-07-28T03:01:29;21.90;;;10.40;;
45338;SDS011;31071;51.478;5.710;2023-07-28T03:04:08;19.98;;;10.50;;
45338;SDS011;31071;51.478;5.710;2023-07-28T03:06:34;18.58;;;10.88;;
45338;SDS011;31071;51.478;5.710;2023-07-28T03:08:59;22.17;;;11.63;;
45338;SDS011;31071;51.478;5.710;2023-07-28T03:11:24;25.48;;;11.50;;
45338;SDS011;31071;51.478;5.710;2023-07-28T03:13:50;23.50;;;12.65;;
45338;SDS011;31071;51.478;5.710;2023-07-28T03:16:16;24.88;;;13.30;;
45338;SDS011;31071;51.478;5.710;2023-07-28T03:18:41;24.70;;;12.63;;
45338;SDS011;31071;51.478;5.710;2023-07-28T03:21:08;26.40;;;13.68;;
45338;SDS011;31071;51.478;5.710;2023-07-28T03:23:34;27.98;;;13.43;;
45338;SDS011;31071;51.478;5.710;2023-07-28T03:25:59;32.50;;;14.82;;
45338;SDS011;31071;51.478;5.710;2023-07-28T03:28:25;31.23;;;14.95;;
45338;SDS011;31071;51.478;5.710;2023-07-28T03:30:50;29.13;;;15.02;;
45338;SDS011;31071;51.478;5.710;2023-07-28T03:33:16;32.75;;;15.60;;
45338;SDS011;31071;51.478;5.710;2023-07-28T03:35:41;30.58;;;14.55;;
45338;SDS011;31071;51.478;5.710;2023-07-28T03:38:07;33.28;;;14.65;;
45338;SDS011;31071;51.478;5.710;2023-07-28T03:40:32;33.88;;;15.40;;
45338;SDS011;31071;51.478;5.710;2023-07-28T03:42:58;34.10;;;16.13;;
45338;SDS011;31071;51.478;5.710;2023-07-28T03:45:24;37.05;;;16.42;;
45338;SDS011;31071;51.478;5.710;2023-07-28T03:47:49;35.05;;;16.52;;
45338;SDS011;31071;51.478;5.710;2023-07-28T03:50:15;37.15;;;17.10;;
45338;SDS011;31071;51.478;5.710;2023-07-28T03:52:40;37.42;;;18.27;;
45338;SDS011;31071;51.478;5.710;2023-07-28T03:55:06;38.42;;;18.42;;
45338;SDS011;31071;51.478;5.710;2023-07-28T03:57:32;41.25;;;18.70;;
45338;SDS011;31071;51.478;5.710;2023-07-28T03:59:57;36.47;;;17.85;;
45338;SDS011;31071;51.478;5.710;2023-07-28T04:02:23;39.30;;;18.50;;
45338;SDS011;31071;51.478;5.710;2023-07-28T04:04:53;42.35;;;19.38;;
45338;SDS011;31071;51.478;5.710;2023-07-28T04:07:19;42.60;;;18.70;;
45338;SDS011;31071;51.478;5.710;2023-07-28T04:09:45;40.92;;;19.40;;
45338;SDS011;31071;51.478;5.710;2023-07-28T04:12:11;43.05;;;20.48;;
45338;SDS011;31071;51.478;5.710;2023-07-28T04:14:36;37.53;;;19.98;;
45338;SDS011;31071;51.478;5.710;2023-07-28T04:17:02;38.45;;;18.98;;
45338;SDS011;31071;51.478;5.710;2023-07-28T04:19:27;37.65;;;19.25;;
45338;SDS011;31071;51.478;5.710;2023-07-28T04:21:54;44.20;;;20.02;;
45338;SDS011;31071;51.478;5.710;2023-07-28T04:24:21;38.72;;;20.13;;
45338;SDS011;31071;51.478;5.710;2023-07-28T04:26:46;45.38;;;20.60;;
45338;SDS011;31071;51.478;5.710;2023-07-28T04:29:14;39.25;;;20.20;;
45338;SDS011;31071;51.478;5.710;2023-07-28T04:31:39;39.65;;;19.63;;
45338;SDS011;31071;51.478;5.710;2023-07-28T04:34:05;35.28;;;19.27;;
45338;SDS011;31071;51.478;5.710;2023-07-28T04:36:30;40.53;;;21.15;;
45338;SDS011;31071;51.478;5.710;2023-07-28T04:38:56;40.90;;;19.88;;
45338;SDS011;31071;51.478;5.710;2023-07-28T04:41:21;35.95;;;20.20;;
45338;SDS011;31071;51.478;5.710;2023-07-28T04:43:47;36.60;;;20.15;;
45338;SDS011;31071;51.478;5.710;2023-07-28T04:46:12;41.63;;;20.40;;
45338;SDS011;31071;51.478;5.710;2023-07-28T04:48:38;38.47;;;20.08;;
45338;SDS011;31071;51.478;5.710;2023-07-28T04:51:03;32.45;;;18.75;;
45338;SDS011;31071;51.478;5.710;2023-07-28T04:53:29;36.72;;;21.50;;
45338;SDS011;31071;51.478;5.710;2023-07-28T04:55:54;39.42;;;19.42;;
45338;SDS011;31071;51.478;5.710;2023-07-28T04:58:20;41.88;;;21.52;;
45338;SDS011;31071;51.478;5.710;2023-07-28T05:00:46;37.50;;;21.35;;
45338;SDS011;31071;51.478;5.710;2023-07-28T05:03:11;38.70;;;21.48;;
45338;SDS011;31071;51.478;5.710;2023-07-28T05:05:37;42.05;;;21.38;;
45338;SDS011;31071;51.478;5.710;2023-07-28T05:08:02;42.15;;;21.98;;
45338;SDS011;31071;51.478;5.710;2023-07-28T05:10:28;40.17;;;22.65;;
45338;SDS011;31071;51.478;5.710;2023-07-28T05:12:53;43.53;;;23.33;;
45338;SDS011;31071;51.478;5.710;2023-07-28T05:15:19;46.83;;;22.73;;
45338;SDS011;31071;51.478;5.710;2023-07-28T05:17:45;43.78;;;22.80;;
45338;SDS011;31071;51.478;5.710;2023-07-28T05:20:10;42.40;;;22.70;;
45338;SDS011;31071;51.478;5.710;2023-07-28T05:22:36;50.60;;;24.48;;
45338;SDS011;31071;51.478;5.710;2023-07-28T05:25:02;41.70;;;23.35;;
45338;SDS011;31071;51.478;5.710;2023-07-28T05:27:27;45.95;;;26.45;;
45338;SDS011;31071;51.478;5.710;2023-07-28T05:29:53;48.58;;;25.27;;
45338;SDS011;31071;51.478;5.710;2023-07-28T05:32:18;43.05;;;24.35;;
45338;SDS011;31071;51.478;5.710;2023-07-28T05:34:44;44.70;;;25.13;;
45338;SDS011;31071;51.478;5.710;2023-07-28T05:37:10;41.10;;;24.58;;
45338;SDS011;31071;51.478;5.710;2023-07-28T05:39:35;50.45;;;26.27;;
45338;SDS011;31071;51.478;5.710;2023-07-28T05:42:01;44.78;;;25.75;;
45338;SDS011;31071;51.478;5.710;2023-07-28T05:44:27;51.13;;;27.65;;
45338;SDS011;31071;51.478;5.710;2023-07-28T05:46:53;50.35;;;28.02;;
45338;SDS011;31071;51.478;5.710;2023-07-28T05:49:18;51.47;;;28.63;;
45338;SDS011;31071;51.478;5.710;2023-07-28T05:51:44;54.92;;;30.50;;
45338;SDS011;31071;51.478;5.710;2023-07-28T05:54:09;65.03;;;33.03;;
45338;SDS011;31071;51.478;5.710;2023-07-28T05:56:35;68.20;;;34.58;;
45338;SDS011;31071;51.478;5.710;2023-07-28T05:59:00;66.20;;;33.95;;
45338;SDS011;31071;51.478;5.710;2023-07-28T06:01:26;75.40;;;36.40;;
45338;SDS011;31071;51.478;5.710;2023-07-28T06:03:52;72.72;;;36.67;;
45338;SDS011;31071;51.478;5.710;2023-07-28T06:06:20;82.68;;;39.63;;
45338;SDS011;31071;51.478;5.710;2023-07-28T06:08:47;85.30;;;39.88;;
45338;SDS011;31071;51.478;5.710;2023-07-28T06:11:12;74.63;;;38.20;;
45338;SDS011;31071;51.478;5.710;2023-07-28T06:13:38;84.15;;;39.67;;
45338;SDS011;31071;51.478;5.710;2023-07-28T06:16:03;79.38;;;38.92;;
45338;SDS011;31071;51.478;5.710;2023-07-28T06:18:29;77.03;;;38.08;;
45338;SDS011;31071;51.478;5.710;2023-07-28T06:20:54;77.95;;;38.38;;
45338;SDS011;31071;51.478;5.710;2023-07-28T06:23:20;77.97;;;37.20;;
45338;SDS011;31071;51.478;5.710;2023-07-28T06:25:45;72.63;;;35.35;;
45338;SDS011;31071;51.478;5.710;2023-07-28T06:28:11;70.82;;;33.10;;
45338;SDS011;31071;51.478;5.710;2023-07-28T06:30:37;68.05;;;33.53;;
45338;SDS011;31071;51.478;5.710;2023-07-28T06:33:05;67.30;;;31.88;;
45338;SDS011;31071;51.478;5.710;2023-07-28T06:35:31;60.78;;;29.42;;
45338;SDS011;31071;51.478;5.710;2023-07-28T06:37:57;55.83;;;27.42;;
45338;SDS011;31071;51.478;5.710;2023-07-28T06:40:22;52.47;;;26.45;;
45338;SDS011;31071;51.478;5.710;2023-07-28T06:42:48;48.22;;;25.98;;
45338;SDS011;31071;51.478;5.710;2023-07-28T06:45:13;49.58;;;25.80;;
45338;SDS011;31071;51.478;5.710;2023-07-28T06:47:39;40.88;;;21.65;;
45338;SDS011;31071;51.478;5.710;2023-07-28T06:50:05;40.42;;;20.38;;
45338;SDS011;31071;51.478;5.710;2023-07-28T06:52:31;37.42;;;19.85;;
45338;SDS011;31071;51.478;5.710;2023-07-28T06:54:56;35.38;;;19.92;;
45338;SDS011;31071;51.478;5.710;2023-07-28T06:57:22;29.13;;;17.60;;
45338;SDS011;31071;51.478;5.710;2023-07-28T06:59:48;31.00;;;17.83;;
45338;SDS011;31071;51.478;5.710;2023-07-28T07:02:15;33.83;;;18.75;;
45338;SDS011;31071;51.478;5.710;2023-07-28T07:04:43;33.97;;;18.50;;
45338;SDS011;31071;51.478;5.710;2023-07-28T07:07:09;28.52;;;17.52;;
45338;SDS011;31071;51.478;5.710;2023-07-28T07:09:34;30.58;;;17.38;;
45338;SDS011;31071;51.478;5.710;2023-07-28T07:12:00;31.27;;;16.90;;
45338;SDS011;31071;51.478;5.710;2023-07-28T07:14:26;25.42;;;15.30;;
45338;SDS011;31071;51.478;5.710;2023-07-28T07:16:51;23.00;;;14.45;;
45338;SDS011;31071;51.478;5.710;2023-07-28T07:19:17;20.52;;;13.38;;
45338;SDS011;31071;51.478;5.710;2023-07-28T07:21:42;23.25;;;13.63;;
45338;SDS011;31071;51.478;5.710;2023-07-28T07:24:10;17.88;;;13.18;;
45338;SDS011;31071;51.478;5.710;2023-07-28T07:26:40;18.63;;;13.43;;
45338;SDS011;31071;51.478;5.710;2023-07-28T07:29:27;17.45;;;12.32;;
45338;SDS011;31071;51.478;5.710;2023-07-28T07:32:10;19.00;;;12.35;;
45338;SDS011;31071;51.478;5.710;2023-07-28T07:34:36;18.48;;;12.07;;
45338;SDS011;31071;51.478;5.710;2023-07-28T07:37:03;18.55;;;12.35;;
45338;SDS011;31071;51.478;5.710;2023-07-28T07:39:29;16.33;;;11.82;;
45338;SDS011;31071;51.478;5.710;2023-07-28T07:41:54;17.23;;;11.43;;
45338;SDS011;31071;51.478;5.710;2023-07-28T07:44:20;14.73;;;11.75;;
45338;SDS011;31071;51.478;5.710;2023-07-28T07:46:45;16.85;;;11.07;;
45338;SDS011;31071;51.478;5.710;2023-07-28T07:49:11;17.13;;;11.27;;
45338;SDS011;31071;51.478;5.710;2023-07-28T07:51:42;14.25;;;10.38;;
45338;SDS011;31071;51.478;5.710;2023-07-28T07:54:08;11.95;;;9.85;;
45338;SDS011;31071;51.478;5.710;2023-07-28T07:56:33;12.70;;;9.95;;
45338;SDS011;31071;51.478;5.710;2023-07-28T07:58:59;11.55;;;9.07;;
45338;SDS011;31071;51.478;5.710;2023-07-28T08:01:24;12.32;;;9.73;;
45338;SDS011;31071;51.478;5.710;2023-07-28T08:03:50;10.18;;;8.23;;
45338;SDS011;31071;51.478;5.710;2023-07-28T08:06:15;12.20;;;8.40;;
45338;SDS011;31071;51.478;5.710;2023-07-28T08:08:41;11.07;;;8.48;;
45338;SDS011;31071;51.478;5.710;2023-07-28T08:11:07;10.30;;;7.90;;
45338;SDS011;31071;51.478;5.710;2023-07-28T08:13:32;11.52;;;8.43;;
45338;SDS011;31071;51.478;5.710;2023-07-28T08:15:58;11.23;;;8.55;;
45338;SDS011;31071;51.478;5.710;2023-07-28T08:18:25;9.45;;;7.70;;
45338;SDS011;31071;51.478;5.710;2023-07-28T08:20:50;10.38;;;7.50;;
45338;SDS011;31071;51.478;5.710;2023-07-28T08:23:16;11.55;;;7.28;;
45338;SDS011;31071;51.478;5.710;2023-07-28T08:25:45;10.38;;;7.32;;
45338;SDS011;31071;51.478;5.710;2023-07-28T08:28:11;8.23;;;7.38;;
45338;SDS011;31071;51.478;5.710;2023-07-28T08:30:36;8.30;;;7.43;;
45338;SDS011;31071;51.478;5.710;2023-07-28T08:33:02;12.40;;;7.03;;
45338;SDS011;31071;51.478;5.710;2023-07-28T08:35:28;8.50;;;6.95;;
45338;SDS011;31071;51.478;5.710;2023-07-28T08:37:54;6.80;;;5.78;;
45338;SDS011;31071;51.478;5.710;2023-07-28T08:40:19;6.45;;;5.72;;
45338;SDS011;31071;51.478;5.710;2023-07-28T08:42:45;7.03;;;6.32;;
45338;SDS011;31071;51.478;5.710;2023-07-28T08:45:11;7.70;;;5.68;;
45338;SDS011;31071;51.478;5.710;2023-07-28T08:47:38;6.55;;;5.95;;
45338;SDS011;31071;51.478;5.710;2023-07-28T08:50:04;6.70;;;5.68;;
45338;SDS011;31071;51.478;5.710;2023-07-28T08:52:31;6.30;;;5.03;;
45338;SDS011;31071;51.478;5.710;2023-07-28T08:54:57;5.47;;;4.97;;
45338;SDS011;31071;51.478;5.710;2023-07-28T08:57:22;7.32;;;5.25;;
45338;SDS011;31071;51.478;5.710;2023-07-28T08:59:48;6.70;;;4.90;;
45338;SDS011;31071;51.478;5.710;2023-07-28T09:02:15;5.78;;;5.22;;
45338;SDS011;31071;51.478;5.710;2023-07-28T09:04:41;7.13;;;4.60;;
45338;SDS011;31071;51.478;5.710;2023-07-28T09:07:07;5.70;;;4.40;;
45338;SDS011;31071;51.478;5.710;2023-07-28T09:09:33;7.25;;;4.15;;
45338;SDS011;31071;51.478;5.710;2023-07-28T09:11:59;4.35;;;3.95;;
45338;SDS011;31071;51.478;5.710;2023-07-28T09:14:26;4.93;;;4.03;;
45338;SDS011;31071;51.478;5.710;2023-07-28T09:16:52;3.63;;;3.28;;
45338;SDS011;31071;51.478;5.710;2023-07-28T09:19:19;4.00;;;3.70;;
45338;SDS011;31071;51.478;5.710;2023-07-28T09:21:45;3.88;;;3.42;;
45338;SDS011;31071;51.478;5.710;2023-07-28T09:24:28;3.42;;;3.13;;
45338;SDS011;31071;51.478;5.710;2023-07-28T09:26:58;4.63;;;3.25;;
45338;SDS011;31071;51.478;5.710;2023-07-28T09:29:25;3.53;;;3.22;;
45338;SDS011;31071;51.478;5.710;2023-07-28T09:31:52;5.22;;;3.58;;
45338;SDS011;31071;51.478;5.710;2023-07-28T09:34:27;3.85;;;3.55;;
45338;SDS011;31071;51.478;5.710;2023-07-28T09:36:54;3.33;;;3.13;;
45338;SDS011;31071;51.478;5.710;2023-07-28T09:39:24;4.57;;;3.38;;
45338;SDS011;31071;51.478;5.710;2023-07-28T09:41:50;4.25;;;3.10;;
45338;SDS011;31071;51.478;5.710;2023-07-28T09:44:16;3.40;;;3.10;;
45338;SDS011;31071;51.478;5.710;2023-07-28T09:49:18;3.03;;;2.83;;
45338;SDS011;31071;51.478;5.710;2023-07-28T09:51:48;3.08;;;2.88;;
45338;SDS011;31071;51.478;5.710;2023-07-28T09:54:20;5.15;;;3.47;;
45338;SDS011;31071;51.478;5.710;2023-07-28T09:56:53;3.50;;;3.20;;
45338;SDS011;31071;51.478;5.710;2023-07-28T09:59:21;4.97;;;3.40;;
45338;SDS011;31071;51.478;5.710;2023-07-28T10:02:17;4.38;;;3.15;;
45338;SDS011;31071;51.478;5.710;2023-07-28T10:04:42;4.07;;;3.00;;
45338;SDS011;31071;51.478;5.710;2023-07-28T10:07:08;6.60;;;3.83;;
45338;SDS011;31071;51.478;5.710;2023-07-28T10:09:35;3.88;;;3.10;;
45338;SDS011;31071;51.478;5.710;2023-07-28T10:12:03;3.50;;;3.20;;
45338;SDS011;31071;51.478;5.710;2023-07-28T10:14:29;5.82;;;3.20;;
45338;SDS011;31071;51.478;5.710;2023-07-28T10:17:05;4.07;;;3.10;;
45338;SDS011;31071;51.478;5.710;2023-07-28T10:19:34;3.28;;;2.88;;
45338;SDS011;31071;51.478;5.710;2023-07-28T10:22:01;3.50;;;3.20;;
45338;SDS011;31071;51.478;5.710;2023-07-28T10:27:33;3.85;;;3.40;;
45338;SDS011;31071;51.478;5.710;2023-07-28T10:30:02;3.53;;;3.22;;
45338;SDS011;31071;51.478;5.710;2023-07-28T10:32:37;3.38;;;3.15;;
45338;SDS011;31071;51.478;5.710;2023-07-28T10:35:08;3.95;;;3.58;;
45338;SDS011;31071;51.478;5.710;2023-07-28T10:37:46;3.70;;;3.40;;
45338;SDS011;31071;51.478;5.710;2023-07-28T10:42:59;3.50;;;3.10;;
45338;SDS011;31071;51.478;5.710;2023-07-28T10:45:26;3.63;;;2.53;;
45338;SDS011;31071;51.478;5.710;2023-07-28T10:47:54;3.50;;;3.10;;
45338;SDS011;31071;51.478;5.710;2023-07-28T10:50:26;2.78;;;2.55;;
45338;SDS011;31071;51.478;5.710;2023-07-28T10:52:52;4.38;;;2.72;;
45338;SDS011;31071;51.478;5.710;2023-07-28T10:55:19;2.25;;;2.05;;
45338;SDS011;31071;51.478;5.710;2023-07-28T10:57:46;2.30;;;2.10;;
45338;SDS011;31071;51.478;5.710;2023-07-28T11:00:14;2.30;;;2.13;;
45338;SDS011;31071;51.478;5.710;2023-07-28T11:02:44;1.95;;;1.85;;
45338;SDS011;31071;51.478;5.710;2023-07-28T11:05:12;3.30;;;1.98;;
45338;SDS011;31071;51.478;5.710;2023-07-28T11:07:42;2.35;;;2.10;;
45338;SDS011;31071;51.478;5.710;2023-07-28T11:10:09;2.00;;;1.90;;
45338;SDS011;31071;51.478;5.710;2023-07-28T11:12:38;2.40;;;1.70;;
45338;SDS011;31071;51.478;5.710;2023-07-28T11:15:06;2.00;;;1.90;;
45338;SDS011;31071;51.478;5.710;2023-07-28T11:17:36;2.33;;;2.22;;
45338;SDS011;31071;51.478;5.710;2023-07-28T11:20:18;2.22;;;1.95;;
45338;SDS011;31071;51.478;5.710;2023-07-28T11:25:19;3.45;;;2.40;;
45338;SDS011;31071;51.478;5.710;2023-07-28T11:27:47;2.40;;;2.20;;
45338;SDS011;31071;51.478;5.710;2023-07-28T11:30:13;2.13;;;2.03;;
45338;SDS011;31071;51.478;5.710;2023-07-28T11:32:42;5.38;;;2.60;;
45338;SDS011;31071;51.478;5.710;2023-07-28T11:35:10;2.35;;;2.15;;
45338;SDS011;31071;51.478;5.710;2023-07-28T11:37:40;1.58;;;1.52;;
45338;SDS011;31071;51.478;5.710;2023-07-28T11:40:08;3.00;;;2.30;;
45338;SDS011;31071;51.478;5.710;2023-07-28T11:42:37;4.20;;;2.03;;
45338;SDS011;31071;51.478;5.710;2023-07-28T11:45:04;2.03;;;1.60;;
45338;SDS011;31071;51.478;5.710;2023-07-28T11:47:31;2.78;;;1.70;;
45338;SDS011;31071;51.478;5.710;2023-07-28T11:49:57;2.17;;;1.80;;
45338;SDS011;31071;51.478;5.710;2023-07-28T11:52:44;1.73;;;1.48;;
45338;SDS011;31071;51.478;5.710;2023-07-28T11:55:11;1.65;;;1.55;;
45338;SDS011;31071;51.478;5.710;2023-07-28T11:57:36;3.42;;;1.65;;
45338;SDS011;31071;51.478;5.710;2023-07-28T12:00:03;1.92;;;1.77;;
45338;SDS011;31071;51.478;5.710;2023-07-28T12:02:30;2.15;;;1.95;;
45338;SDS011;31071;51.478;5.710;2023-07-28T12:04:58;1.70;;;1.60;;
45338;SDS011;31071;51.478;5.710;2023-07-28T12:07:30;2.20;;;1.42;;
45338;SDS011;31071;51.478;5.710;2023-07-28T12:10:05;1.67;;;1.58;;
45338;SDS011;31071;51.478;5.710;2023-07-28T12:12:41;1.50;;;1.40;;
45338;SDS011;31071;51.478;5.710;2023-07-28T12:15:27;1.52;;;1.42;;
45338;SDS011;31071;51.478;5.710;2023-07-28T12:18:03;1.88;;;1.70;;
45338;SDS011;31071;51.478;5.710;2023-07-28T12:20:36;1.33;;;1.33;;
45338;SDS011;31071;51.478;5.710;2023-07-28T12:23:04;1.75;;;1.65;;
45338;SDS011;31071;51.478;5.710;2023-07-28T12:25:30;2.00;;;1.88;;
45338;SDS011;31071;51.478;5.710;2023-07-28T12:27:56;2.53;;;1.67;;
45338;SDS011;31071;51.478;5.710;2023-07-28T12:30:22;1.88;;;1.77;;
45338;SDS011;31071;51.478;5.710;2023-07-28T12:32:48;2.33;;;1.95;;
45338;SDS011;31071;51.478;5.710;2023-07-28T12:35:13;2.17;;;1.63;;
45338;SDS011;31071;51.478;5.710;2023-07-28T12:37:39;1.58;;;1.35;;
45338;SDS011;31071;51.478;5.710;2023-07-28T12:40:05;1.67;;;1.42;;
45338;SDS011;31071;51.478;5.710;2023-07-28T12:42:31;1.65;;;1.52;;
45338;SDS011;31071;51.478;5.710;2023-07-28T12:44:57;1.40;;;1.30;;
45338;SDS011;31071;51.478;5.710;2023-07-28T12:47:23;1.27;;;1.27;;
45338;SDS011;31071;51.478;5.710;2023-07-28T12:49:49;2.67;;;1.23;;
45338;SDS011;31071;51.478;5.710;2023-07-28T12:52:14;1.20;;;1.10;;
45338;SDS011;31071;51.478;5.710;2023-07-28T12:54:40;1.30;;;1.25;;
45338;SDS011;31071;51.478;5.710;2023-07-28T12:57:07;2.97;;;1.27;;
45338;SDS011;31071;51.478;5.710;2023-07-28T12:59:35;1.00;;;1.00;;
45338;SDS011;31071;51.478;5.710;2023-07-28T13:02:01;3.03;;;1.25;;
45338;SDS011;31071;51.478;5.710;2023-07-28T13:04:27;1.30;;;1.00;;
45338;SDS011;31071;51.478;5.710;2023-07-28T13:06:53;1.15;;;1.05;;
45338;SDS011;31071;51.478;5.710;2023-07-28T13:09:18;0.80;;;0.80;;
45338;SDS011;31071;51.478;5.710;2023-07-28T13:11:44;1.20;;;0.98;;
45338;SDS011;31071;51.478;5.710;2023-07-28T13:14:10;1.48;;;0.98;;
45338;SDS011;31071;51.478;5.710;2023-07-28T13:16:35;2.17;;;0.90;;
45338;SDS011;31071;51.478;5.710;2023-07-28T13:19:02;1.80;;;1.08;;
45338;SDS011;31071;51.478;5.710;2023-07-28T13:21:28;0.65;;;0.60;;
45338;SDS011;31071;51.478;5.710;2023-07-28T13:23:54;2.05;;;0.90;;
45338;SDS011;31071;51.478;5.710;2023-07-28T13:26:25;2.42;;;1.00;;
45338;SDS011;31071;51.478;5.710;2023-07-28T13:28:51;0.95;;;0.80;;
45338;SDS011;31071;51.478;5.710;2023-07-28T13:31:17;1.35;;;1.10;;
45338;SDS011;31071;51.478;5.710;2023-07-28T13:33:43;0.90;;;0.82;;
45338;SDS011;31071;51.478;5.710;2023-07-28T13:36:09;1.00;;;0.90;;
45338;SDS011;31071;51.478;5.710;2023-07-28T13:38:34;0.80;;;0.80;;
45338;SDS011;31071;51.478;5.710;2023-07-28T13:41:01;0.80;;;0.80;;
45338;SDS011;31071;51.478;5.710;2023-07-28T13:43:29;2.60;;;0.90;;
45338;SDS011;31071;51.478;5.710;2023-07-28T13:45:54;0.70;;;0.70;;
45338;SDS011;31071;51.478;5.710;2023-07-28T13:48:20;2.50;;;1.00;;
45338;SDS011;31071;51.478;5.710;2023-07-28T13:50:45;0.70;;;0.70;;
45338;SDS011;31071;51.478;5.710;2023-07-28T13:53:11;0.80;;;0.80;;
45338;SDS011;31071;51.478;5.710;2023-07-28T13:55:36;0.95;;;0.70;;
45338;SDS011;31071;51.478;5.710;2023-07-28T13:58:03;0.93;;;0.70;;
45338;SDS011;31071;51.478;5.710;2023-07-28T14:00:29;3.38;;;1.02;;
45338;SDS011;31071;51.478;5.710;2023-07-28T14:02:55;1.42;;;0.98;;
45338;SDS011;31071;51.478;5.710;2023-07-28T14:05:20;2.25;;;0.90;;
45338;SDS011;31071;51.478;5.710;2023-07-28T14:07:47;2.22;;;1.05;;
45338;SDS011;31071;51.478;5.710;2023-07-28T14:10:13;1.60;;;0.90;;
45338;SDS011;31071;51.478;5.710;2023-07-28T14:12:39;2.40;;;1.10;;
45338;SDS011;31071;51.478;5.710;2023-07-28T14:15:04;3.65;;;0.98;;
45338;SDS011;31071;51.478;5.710;2023-07-28T14:17:32;1.70;;;0.98;;
45338;SDS011;31071;51.478;5.710;2023-07-28T14:19:58;4.00;;;1.00;;
45338;SDS011;31071;51.478;5.710;2023-07-28T14:22:23;2.80;;;1.23;;
45338;SDS011;31071;51.478;5.710;2023-07-28T14:24:49;1.70;;;1.30;;
45338;SDS011;31071;51.478;5.710;2023-07-28T14:27:15;1.40;;;1.10;;
45338;SDS011;31071;51.478;5.710;2023-07-28T14:29:40;3.58;;;1.30;;
45338;SDS011;31071;51.478;5.710;2023-07-28T14:32:06;2.05;;;1.60;;
45338;SDS011;31071;51.478;5.710;2023-07-28T14:34:32;1.60;;;1.50;;
45338;SDS011;31071;51.478;5.710;2023-07-28T14:37:00;2.58;;;1.60;;
45338;SDS011;31071;51.478;5.710;2023-07-28T14:39:29;1.65;;;1.55;;
45338;SDS011;31071;51.478;5.710;2023-07-28T14:41:55;2.50;;;1.70;;
45338;SDS011;31071;51.478;5.710;2023-07-28T14:44:21;1.95;;;1.75;;
45338;SDS011;31071;51.478;5.710;2023-07-28T14:46:47;1.33;;;1.33;;